Time;durP1;ratioP1;P1;durP2;ratioP2;P2;SDS_P1;SDS_P2;PMS_P1;PMS_P2;Temp;Humidity;BMP_temperature;BMP_pressure;BME280_temperature;BME280_humidity;BME280_pressure;Samples;Min_cycle;Max_cycle;Signal;HPM_P1;HPM_P2
2023/07/24 00:01:44;;;;;;;7.03;4.20;;;23.50;52.70;23.00;95960.00;;;;5064779;28;20196;-84
2023/07/24 00:04:11;;;;;;;5.50;3.80;;;23.50;52.80;22.90;95963.00;;;;5064939;28;20197;-84
2023/07/24 00:06:38;;;;;;;6.03;4.17;;;23.50;52.80;22.90;95966.00;;;;5064429;28;20227;-85
2023/07/24 00:09:06;;;;;;;8.03;4.17;;;23.50;52.90;22.90;95955.00;;;;5067023;28;20212;-84
2023/07/24 00:11:33;;;;;;;5.40;3.90;;;23.40;52.90;22.90;95948.00;;;;5069609;28;20208;-85
2023/07/24 00:14:03;;;;;;;5.93;3.93;;;23.40;53.00;22.80;95947.00;;;;5066175;28;20274;-85
2023/07/24 00:16:30;;;;;;;7.47;4.03;;;23.40;53.00;22.80;95939.00;;;;5072072;28;20214;-84
2023/07/24 00:18:57;;;;;;;6.33;4.10;;;23.30;53.00;22.70;95928.00;;;;5081086;28;20299;-84
2023/07/24 00:21:24;;;;;;;4.80;3.97;;;23.30;53.00;22.70;95927.00;;;;5076258;28;20192;-85
2023/07/24 00:23:52;;;;;;;5.40;4.27;;;23.30;53.10;22.70;95918.00;;;;5066695;28;20674;-84
2023/07/24 00:26:19;;;;;;;5.97;3.77;;;23.30;53.20;22.70;95919.00;;;;5082381;28;20216;-84
2023/07/24 00:28:46;;;;;;;5.60;3.77;;;23.20;53.20;22.70;95919.00;;;;5068224;28;20661;-84
2023/07/24 00:31:14;;;;;;;5.67;4.00;;;23.20;53.30;22.70;95914.00;;;;5070158;28;20212;-84
2023/07/24 00:33:42;;;;;;;6.13;3.87;;;23.20;53.20;22.60;95910.00;;;;5077300;28;20202;-84
2023/07/24 00:36:09;;;;;;;6.97;4.23;;;23.20;53.20;22.60;95907.00;;;;5071264;28;20216;-84
2023/07/24 00:38:36;;;;;;;6.97;4.43;;;23.20;53.20;22.60;95907.00;;;;5069945;28;20203;-85
2023/07/24 00:41:03;;;;;;;6.93;3.80;;;23.20;53.30;22.60;95907.00;;;;5077505;28;20226;-84
2023/07/24 00:43:31;;;;;;;5.40;3.97;;;23.20;53.30;22.60;95909.00;;;;5065268;28;20200;-85
2023/07/24 00:45:58;;;;;;;5.87;4.23;;;23.10;53.40;22.50;95896.00;;;;5069676;28;20595;-84
2023/07/24 00:48:28;;;;;;;6.63;3.87;;;23.10;53.60;22.50;95891.00;;;;5063455;28;20566;-85
2023/07/24 00:50:56;;;;;;;6.20;4.20;;;23.10;53.70;22.50;95892.00;;;;5062199;28;20216;-84
2023/07/24 00:53:24;;;;;;;5.47;4.20;;;23.10;53.80;22.50;95893.00;;;;5060874;28;20200;-85
2023/07/24 00:55:51;;;;;;;6.00;3.97;;;23.10;53.80;22.50;95892.00;;;;5066900;28;20700;-85
2023/07/24 00:58:20;;;;;;;6.77;3.90;;;23.00;53.80;22.40;95894.00;;;;5063460;28;20224;-84
2023/07/24 01:00:47;;;;;;;6.47;4.10;;;23.00;53.80;22.40;95888.00;;;;5068085;28;20222;-85
2023/07/24 01:03:14;;;;;;;5.33;4.27;;;23.00;53.80;22.40;95884.00;;;;5067642;28;20196;-84
2023/07/24 01:05:43;;;;;;;6.73;4.47;;;23.00;53.80;22.40;95880.00;;;;5069267;28;20287;-85
2023/07/24 01:08:10;;;;;;;6.80;3.77;;;23.00;53.90;22.30;95872.00;;;;5073309;28;20200;-84
2023/07/24 01:10:38;;;;;;;7.53;3.87;;;22.90;53.90;22.30;95869.00;;;;5069895;28;20310;-85
2023/07/24 01:13:17;;;;;;;5.90;4.27;;;22.90;54.00;22.30;95878.00;;;;5062476;28;20696;-85
2023/07/24 01:15:57;;;;;;;4.13;3.70;;;22.90;54.20;22.20;95878.00;;;;5067028;28;20196;-84
2023/07/24 01:18:27;;;;;;;5.33;4.00;;;22.90;54.20;22.20;95881.00;;;;5068019;28;20562;-84
2023/07/24 01:20:59;;;;;;;5.43;4.03;;;22.80;54.10;22.10;95877.00;;;;5070447;28;20196;-84
2023/07/24 01:23:52;;;;;;;5.43;3.70;;;22.80;54.20;22.10;95875.00;;;;5069655;28;20198;-85
2023/07/24 01:26:23;;;;;;;6.00;4.07;;;22.80;54.50;22.10;95864.00;;;;5072645;28;20261;-84
2023/07/24 01:28:51;;;;;;;7.43;4.23;;;22.70;54.30;22.10;95858.00;;;;5076423;28;20192;-85
2023/07/24 01:31:18;;;;;;;5.40;3.90;;;22.70;54.80;22.00;95850.00;;;;5076356;28;20302;-84
2023/07/24 01:33:46;;;;;;;5.83;3.80;;;22.70;54.30;22.00;95851.00;;;;5081639;28;20203;-85
2023/07/24 01:36:15;;;;;;;8.13;4.50;;;22.70;54.30;22.00;95856.00;;;;5069681;28;20220;-85
2023/07/24 01:38:44;;;;;;;6.43;3.87;;;22.60;54.30;21.90;95856.00;;;;5094113;28;20199;-85
2023/07/24 01:41:12;;;;;;;11.10;4.70;;;22.60;54.30;21.90;95851.00;;;;5071530;28;20595;-84
2023/07/24 01:43:40;;;;;;;5.00;4.07;;;22.60;54.40;21.80;95854.00;;;;5081864;28;20223;-84
2023/07/24 01:46:08;;;;;;;6.63;4.17;;;22.50;54.50;21.80;95853.00;;;;5076273;28;20226;-85
2023/07/24 01:48:35;;;;;;;4.70;4.17;;;22.50;54.60;21.80;95852.00;;;;5078590;28;20200;-84
2023/07/24 01:51:02;;;;;;;5.00;3.63;;;22.50;54.70;21.80;95853.00;;;;5068680;28;20224;-85
2023/07/24 01:53:30;;;;;;;5.30;3.93;;;22.40;55.30;21.80;95857.00;;;;5073374;28;20202;-85
2023/07/24 01:55:57;;;;;;;8.07;4.53;;;22.40;54.80;21.80;95872.00;;;;5070440;28;20212;-85
2023/07/24 01:58:25;;;;;;;7.13;4.20;;;22.50;55.00;21.90;95878.00;;;;5064160;28;20265;-85
2023/07/24 02:00:56;;;;;;;6.47;3.93;;;22.50;55.00;21.90;95883.00;;;;5068336;28;20590;-85
2023/07/24 02:03:23;;;;;;;8.43;4.43;;;22.40;55.10;21.90;95871.00;;;;5069378;28;20204;-85
2023/07/24 02:05:51;;;;;;;5.00;3.87;;;22.40;54.90;21.90;95867.00;;;;5079436;28;20215;-85
2023/07/24 02:08:19;;;;;;;7.60;4.37;;;22.50;55.00;21.90;95863.00;;;;5078780;28;20207;-85
2023/07/24 02:10:50;;;;;;;4.90;3.87;;;22.50;54.90;21.90;95867.00;;;;5069814;28;20208;-85
2023/07/24 02:13:18;;;;;;;4.60;4.17;;;22.50;55.00;21.90;95868.00;;;;5067787;28;20196;-85
2023/07/24 02:15:45;;;;;;;5.10;3.83;;;22.50;55.00;21.90;95870.00;;;;5084600;28;20203;-85
2023/07/24 02:18:14;;;;;;;7.97;4.60;;;22.50;55.00;21.90;95859.00;;;;5070407;28;20290;-85
2023/07/24 02:20:41;;;;;;;6.27;4.53;;;22.50;55.10;22.00;95868.00;;;;5065541;28;20623;-84
2023/07/24 02:23:09;;;;;;;5.27;3.93;;;22.50;55.20;22.00;95864.00;;;;5065817;28;20196;-85
2023/07/24 02:25:37;;;;;;;5.07;4.13;;;22.50;55.30;22.00;95862.00;;;;5065512;28;20688;-85
2023/07/24 02:28:05;;;;;;;5.90;3.93;;;22.50;55.40;22.00;95863.00;;;;5067042;28;20206;-85
2023/07/24 02:30:32;;;;;;;5.30;3.83;;;22.50;55.50;22.00;95862.00;;;;5064940;28;20227;-85
2023/07/24 02:32:59;;;;;;;5.13;4.07;;;22.50;55.40;22.00;95880.00;;;;5066430;28;20195;-85
2023/07/24 02:35:28;;;;;;;6.83;4.90;;;22.60;55.40;22.10;95892.00;;;;5065277;28;20196;-85
2023/07/24 02:37:55;;;;;;;5.90;4.23;;;22.60;55.40;22.10;95934.00;;;;5066624;28;20198;-84
2023/07/24 02:40:23;;;;;;;7.60;5.00;;;22.60;55.50;22.10;95937.00;;;;5063125;28;20197;-85
2023/07/24 02:42:50;;;;;;;5.03;4.30;;;22.60;55.50;22.10;95990.00;;;;5076553;28;20207;-85
2023/07/24 02:45:17;;;;;;;5.20;4.50;;;22.60;55.50;22.20;95967.00;;;;5064259;28;20193;-84
2023/07/24 02:47:44;;;;;;;4.80;4.17;;;22.60;55.70;22.20;95942.00;;;;5063858;28;20230;-84
2023/07/24 02:50:11;;;;;;;5.63;3.67;;;22.70;56.30;22.20;95928.00;;;;5062822;28;20795;-83
2023/07/24 02:52:40;;;;;;;6.53;4.77;;;22.70;57.20;22.20;95867.00;;;;5066769;28;20208;-84
2023/07/24 02:55:08;;;;;;;5.60;4.40;;;22.70;58.30;22.20;95853.00;;;;5069151;28;20687;-84
2023/07/24 02:57:35;;;;;;;5.67;4.43;;;22.70;58.60;22.10;95853.00;;;;5073154;28;20223;-84
2023/07/24 03:00:03;;;;;;;6.10;5.00;;;22.70;59.10;22.10;95856.00;;;;5071484;28;20198;-84
2023/07/24 03:02:30;;;;;;;6.40;4.27;;;22.60;58.80;22.00;95861.00;;;;5070777;28;20200;-84
2023/07/24 03:04:57;;;;;;;6.27;4.73;;;22.60;58.80;21.90;95858.00;;;;5079579;28;20198;-84
2023/07/24 03:07:24;;;;;;;6.70;4.50;;;22.50;59.10;21.90;95861.00;;;;5072918;28;20219;-84
2023/07/24 03:09:53;;;;;;;5.90;4.20;;;22.50;59.60;21.80;95874.00;;;;5071226;28;20306;-85
2023/07/24 03:12:20;;;;;;;7.07;4.53;;;22.40;60.40;21.80;95902.00;;;;5070984;28;20206;-84
2023/07/24 03:14:48;;;;;;;6.40;4.27;;;22.40;60.90;21.80;95931.00;;;;5069590;28;20187;-84
2023/07/24 03:17:16;;;;;;;5.00;4.40;;;22.40;61.30;21.80;95995.00;;;;5073287;28;20207;-84
2023/07/24 03:19:43;;;;;;;6.90;5.00;;;22.40;61.60;21.80;96070.00;;;;5078525;28;20209;-85
2023/07/24 03:22:10;;;;;;;8.53;5.00;;;22.30;61.50;21.80;96133.00;;;;5067354;28;20204;-84
2023/07/24 03:24:38;;;;;;;5.93;4.73;;;22.30;62.00;21.80;96146.00;;;;5068487;28;20195;-83
2023/07/24 03:27:07;;;;;;;8.60;4.77;;;22.30;62.90;21.80;96134.00;;;;5065629;28;20208;-86
2023/07/24 03:29:34;;;;;;;6.97;5.17;;;22.30;64.00;21.70;96127.00;;;;5065853;28;20687;-85
2023/07/24 03:32:01;;;;;;;7.43;5.70;;;22.30;64.50;21.70;96122.00;;;;5064754;28;20628;-84
2023/07/24 03:34:28;;;;;;;7.77;6.23;;;22.30;65.00;21.70;96097.00;;;;5063853;28;20203;-85
2023/07/24 03:36:56;;;;;;;6.93;5.37;;;22.30;65.50;21.70;96083.00;;;;5061982;28;20220;-84
2023/07/24 03:39:23;;;;;;;8.50;6.00;;;22.20;66.00;21.80;96086.00;;;;5064416;28;20198;-84
2023/07/24 03:41:50;;;;;;;8.33;6.40;;;22.30;66.60;21.80;96079.00;;;;5063099;28;20735;-84
2023/07/24 03:44:19;;;;;;;9.77;6.07;;;22.30;66.90;21.80;96064.00;;;;5067848;28;20195;-84
2023/07/24 03:46:46;;;;;;;7.10;5.80;;;22.30;67.40;21.90;96033.00;;;;5082084;28;20215;-85
2023/07/24 03:49:13;;;;;;;6.47;5.77;;;22.30;67.70;21.90;96009.00;;;;5069146;28;20192;-85
2023/07/24 03:51:40;;;;;;;5.87;5.03;;;22.30;67.90;21.90;95966.00;;;;5070607;28;20224;-84
2023/07/24 03:54:07;;;;;;;8.67;6.03;;;22.30;68.20;22.00;95901.00;;;;5074331;28;20203;-84
2023/07/24 03:56:34;;;;;;;8.53;6.40;;;22.40;68.30;22.00;95825.00;;;;5075435;28;20220;-84
2023/07/24 03:59:02;;;;;;;6.87;5.87;;;22.40;68.50;22.00;95828.00;;;;5077016;28;20665;-84
2023/07/24 04:01:30;;;;;;;7.80;6.07;;;22.40;68.90;22.00;95883.00;;;;5070256;28;20658;-84
2023/07/24 04:03:57;;;;;;;8.40;6.10;;;22.50;69.60;22.10;95910.00;;;;5070322;28;20211;-84
2023/07/24 04:06:25;;;;;;;7.37;6.03;;;22.50;69.50;22.10;95885.00;;;;5070339;28;20679;-85
2023/07/24 04:08:52;;;;;;;7.73;6.23;;;22.50;69.70;22.10;95875.00;;;;5076711;28;20206;-84
2023/07/24 04:11:19;;;;;;;6.30;5.30;;;22.50;69.80;22.10;95870.00;;;;5075428;28;20211;-85
2023/07/24 04:13:46;;;;;;;7.77;5.80;;;22.60;70.10;22.10;95840.00;;;;5054565;28;20296;-84
2023/07/24 04:16:13;;;;;;;7.17;5.63;;;22.60;70.20;22.20;95839.00;;;;5082094;28;20216;-85
2023/07/24 04:18:42;;;;;;;7.73;6.27;;;22.60;70.30;22.20;95828.00;;;;5071253;28;20192;-84
2023/07/24 04:21:09;;;;;;;6.90;5.63;;;22.60;70.50;22.20;95800.00;;;;5064480;28;20193;-84
2023/07/24 04:23:37;;;;;;;6.43;5.23;;;22.60;70.20;22.20;95803.00;;;;5071414;28;20287;-84
2023/07/24 04:26:04;;;;;;;6.93;5.60;;;22.70;70.30;22.20;95799.00;;;;5083701;28;20726;-84
2023/07/24 04:28:31;;;;;;;10.17;6.23;;;22.70;70.50;22.20;95804.00;;;;5065524;28;20199;-84
2023/07/24 04:31:02;;;;;;;6.80;5.77;;;22.70;70.70;22.30;95808.00;;;;5067442;28;20220;-85
2023/07/24 04:33:29;;;;;;;7.97;6.10;;;22.70;70.80;22.30;95815.00;;;;5058970;28;20968;-90
2023/07/24 04:35:58;;;;;;;8.47;6.53;;;22.70;70.30;22.30;95819.00;;;;5065753;28;20216;-84
2023/07/24 04:38:25;;;;;;;10.40;6.13;;;22.80;70.30;22.30;95818.00;;;;5063107;28;20192;-85
2023/07/24 04:40:52;;;;;;;8.33;5.77;;;22.80;70.10;22.30;95820.00;;;;5065169;28;20200;-86
2023/07/24 04:43:19;;;;;;;6.43;5.70;;;22.80;69.90;22.30;95824.00;;;;5063205;28;20291;-86
2023/07/24 04:45:47;;;;;;;6.53;5.33;;;22.80;69.60;22.30;95826.00;;;;5065411;28;20231;-83
2023/07/24 04:48:14;;;;;;;6.50;5.67;;;22.80;69.80;22.30;95832.00;;;;5068987;28;20200;-85
2023/07/24 04:50:41;;;;;;;7.50;5.60;;;22.80;69.90;22.30;95858.00;;;;5066160;28;20227;-86
2023/07/24 04:53:12;;;;;;;6.80;5.87;;;22.80;70.70;22.30;95873.00;;;;5064882;28;20207;-85
2023/07/24 04:55:39;;;;;;;7.30;5.93;;;22.80;70.60;22.40;95876.00;;;;5067540;28;20200;-85
2023/07/24 04:58:07;;;;;;;8.63;5.90;;;22.80;70.30;22.40;95852.00;;;;5065880;28;20279;-85
2023/07/24 05:00:34;;;;;;;7.57;6.03;;;22.90;70.80;22.40;95838.00;;;;5068045;28;20215;-86
2023/07/24 05:03:01;;;;;;;8.30;6.07;;;22.80;69.90;22.40;95844.00;;;;5070037;28;20266;-86
2023/07/24 05:05:29;;;;;;;8.37;5.77;;;22.90;70.00;22.40;95791.00;;;;5073426;28;20287;-84
2023/07/24 05:07:56;;;;;;;7.90;6.13;;;22.90;70.50;22.40;95811.00;;;;5040649;28;20279;-85
2023/07/24 05:10:25;;;;;;;7.83;5.93;;;22.90;71.30;22.40;95810.00;;;;5079296;28;20200;-85
2023/07/24 05:12:52;;;;;;;7.53;5.97;;;22.90;72.00;22.40;95816.00;;;;5081118;28;20199;-84
2023/07/24 05:15:19;;;;;;;8.63;6.43;;;22.90;72.00;22.40;95821.00;;;;5084647;28;20775;-84
2023/07/24 05:17:46;;;;;;;9.90;6.30;;;22.90;72.10;22.40;95821.00;;;;5083764;28;20222;-84
2023/07/24 05:20:14;;;;;;;8.20;6.73;;;22.90;72.00;22.40;95839.00;;;;5088405;28;20188;-83
2023/07/24 05:22:42;;;;;;;7.87;6.27;;;22.90;72.10;22.40;95827.00;;;;5073027;28;20198;-82
2023/07/24 05:25:09;;;;;;;8.13;5.70;;;22.90;72.60;22.30;95826.00;;;;5077277;28;20200;-84
2023/07/24 05:27:38;;;;;;;8.63;6.43;;;22.90;72.40;22.30;95831.00;;;;5082616;28;20222;-84
2023/07/24 05:30:07;;;;;;;6.63;5.80;;;22.90;72.40;22.30;95807.00;;;;5082160;28;20196;-83
2023/07/24 05:32:35;;;;;;;9.07;6.23;;;22.90;72.30;22.30;95745.00;;;;5080897;28;20249;-84
2023/07/24 05:35:02;;;;;;;6.67;5.60;;;22.80;72.00;22.20;95727.00;;;;5074782;28;20554;-85
2023/07/24 05:37:29;;;;;;;7.37;5.60;;;22.80;72.40;22.20;95735.00;;;;5071901;28;20212;-85
2023/07/24 05:39:58;;;;;;;8.50;6.37;;;22.80;72.90;22.20;95779.00;;;;5081850;28;20205;-86
2023/07/24 05:42:25;;;;;;;7.70;5.67;;;22.70;73.20;22.10;95781.00;;;;5094592;28;20628;-85
2023/07/24 05:44:54;;;;;;;7.63;5.90;;;22.70;73.10;22.10;95782.00;;;;5081246;28;20622;-85
2023/07/24 05:47:21;;;;;;;10.17;6.23;;;22.70;73.30;22.10;95770.00;;;;5083494;28;20219;-84
2023/07/24 05:49:49;;;;;;;8.80;6.77;;;22.70;73.20;22.10;95779.00;;;;5069888;28;20203;-86
2023/07/24 05:52:16;;;;;;;9.47;6.10;;;22.70;73.30;22.10;95786.00;;;;5076140;28;20283;-85
2023/07/24 05:54:43;;;;;;;8.83;5.77;;;22.70;73.60;22.10;95785.00;;;;5081132;28;20291;-87
2023/07/24 05:57:10;;;;;;;7.43;5.83;;;22.70;73.70;22.20;95792.00;;;;5078186;28;20703;-85
2023/07/24 05:59:37;;;;;;;7.17;5.10;;;22.60;73.60;22.20;95797.00;;;;5088886;28;20204;-85
2023/07/24 06:02:09;;;;;;;8.03;6.00;;;22.70;73.70;22.20;95794.00;;;;5080550;28;20212;-84
2023/07/24 06:04:37;;;;;;;7.60;5.70;;;22.70;73.20;22.20;95791.00;;;;5059972;28;20193;-84
2023/07/24 06:07:05;;;;;;;8.60;5.53;;;22.70;72.70;22.20;95776.00;;;;5053400;28;20691;-84
2023/07/24 06:09:32;;;;;;;7.90;5.70;;;22.70;72.70;22.20;95773.00;;;;5071183;28;20547;-85
2023/07/24 06:11:59;;;;;;;8.23;5.73;;;22.70;72.10;22.20;95787.00;;;;5073364;28;20608;-85
2023/07/24 06:14:27;;;;;;;8.53;5.70;;;22.70;72.40;22.20;95798.00;;;;5066879;28;20192;-85
2023/07/24 06:16:54;;;;;;;6.53;5.23;;;22.70;72.40;22.20;95801.00;;;;5077571;28;20299;-84
2023/07/24 06:19:23;;;;;;;6.47;5.40;;;22.70;73.00;22.20;95802.00;;;;5074096;28;20192;-84
2023/07/24 06:21:50;;;;;;;6.33;5.37;;;22.70;73.80;22.30;95794.00;;;;5071370;28;20204;-84
2023/07/24 06:24:18;;;;;;;8.20;6.00;;;22.70;73.80;22.40;95790.00;;;;5078954;28;20198;-85
2023/07/24 06:26:45;;;;;;;6.10;5.50;;;22.80;74.10;22.50;95792.00;;;;5034828;28;20245;-83
2023/07/24 06:29:13;;;;;;;7.67;5.97;;;22.80;74.60;22.50;95783.00;;;;5067911;28;20280;-84
2023/07/24 06:31:40;;;;;;;7.03;5.73;;;22.90;74.20;22.60;95778.00;;;;5065457;28;20220;-83
2023/07/24 06:34:08;;;;;;;7.07;5.60;;;22.90;74.20;22.60;95764.00;;;;5074191;28;20286;-84
2023/07/24 06:36:36;;;;;;;6.97;5.87;;;23.00;74.70;22.70;95754.00;;;;5066823;28;20227;-84
2023/07/24 06:39:04;;;;;;;7.77;5.50;;;23.10;74.40;22.80;95745.00;;;;5072668;28;21081;-84
2023/07/24 06:41:31;;;;;;;7.77;6.00;;;23.10;73.70;22.80;95749.00;;;;5069062;28;20196;-83
2023/07/24 06:43:59;;;;;;;6.83;5.43;;;23.20;73.80;22.90;95740.00;;;;5069995;28;20661;-84
2023/07/24 06:46:26;;;;;;;6.80;5.37;;;23.20;73.90;23.00;95748.00;;;;5065662;28;20212;-84
2023/07/24 06:48:53;;;;;;;6.80;5.33;;;23.30;74.00;23.00;95762.00;;;;5078493;28;20195;-84
2023/07/24 06:51:21;;;;;;;6.27;4.80;;;23.30;74.20;23.00;95765.00;;;;5066065;28;20223;-84
2023/07/24 06:53:49;;;;;;;6.63;5.50;;;23.40;74.40;23.10;95764.00;;;;5071240;28;20211;-85
2023/07/24 06:56:16;;;;;;;6.93;6.03;;;23.40;74.00;23.20;95760.00;;;;5077729;28;20738;-85
2023/07/24 06:58:44;;;;;;;5.53;5.00;;;23.50;74.30;23.30;95748.00;;;;5069847;28;20334;-84
2023/07/24 07:01:11;;;;;;;7.80;6.03;;;23.60;73.90;23.40;95732.00;;;;5078502;28;20196;-84
2023/07/24 07:03:38;;;;;;;6.03;5.43;;;23.60;73.70;23.50;95726.00;;;;5068896;28;20210;-85
2023/07/24 07:06:06;;;;;;;5.80;4.73;;;23.80;73.60;23.60;95735.00;;;;5071142;28;20219;-85
2023/07/24 07:08:33;;;;;;;6.53;5.37;;;23.80;73.20;23.70;95742.00;;;;5056252;28;20230;-84
2023/07/24 07:11:02;;;;;;;6.67;5.27;;;23.90;73.10;23.80;95757.00;;;;5085147;28;20294;-85
2023/07/24 07:13:30;;;;;;;7.93;5.20;;;24.00;72.90;24.00;95753.00;;;;5073431;28;20203;-85
2023/07/24 07:15:57;;;;;;;6.30;5.37;;;24.10;73.10;24.10;95758.00;;;;5074210;28;20224;-84
2023/07/24 07:18:24;;;;;;;6.87;5.50;;;24.20;72.70;24.30;95764.00;;;;5076747;28;20662;-84
2023/07/24 07:20:53;;;;;;;6.80;4.90;;;24.30;72.50;24.40;95780.00;;;;5068184;28;20630;-86
2023/07/24 07:23:22;;;;;;;6.23;5.43;;;24.50;72.10;24.60;95800.00;;;;5073422;28;20287;-85
2023/07/24 07:25:50;;;;;;;5.90;5.30;;;24.60;71.40;24.80;95845.00;;;;5060126;28;20216;-85
2023/07/24 07:28:19;;;;;;;6.27;4.97;;;24.80;72.00;24.90;95867.00;;;;5074294;28;20220;-85
2023/07/24 07:30:46;;;;;;;6.13;5.23;;;25.00;72.00;25.00;95872.00;;;;5081720;28;20195;-85
2023/07/24 07:33:13;;;;;;;5.10;4.60;;;25.10;71.70;25.10;95891.00;;;;5082108;28;20216;-84
2023/07/24 07:35:40;;;;;;;7.07;6.20;;;25.20;70.80;25.10;95927.00;;;;5083363;28;20201;-84
2023/07/24 07:38:07;;;;;;;5.87;5.27;;;25.30;70.30;25.20;95964.00;;;;5090511;28;20634;-85
2023/07/24 07:40:37;;;;;;;5.30;4.80;;;25.30;70.50;25.20;95965.00;;;;5079808;28;20581;-81
2023/07/24 07:43:05;;;;;;;5.90;5.30;;;25.40;69.60;25.20;95972.00;;;;5073371;28;20207;-81
2023/07/24 07:45:33;;;;;;;7.90;5.30;;;25.40;69.00;25.20;95989.00;;;;5067335;28;20201;-83
2023/07/24 07:48:00;;;;;;;6.47;5.40;;;25.40;69.20;25.20;95992.00;;;;5073311;28;20664;-84
2023/07/24 07:50:28;;;;;;;6.33;5.47;;;25.50;69.50;25.30;96006.00;;;;5072580;28;20192;-86
2023/07/24 07:52:55;;;;;;;5.83;5.00;;;25.50;69.80;25.30;96004.00;;;;5091212;28;20687;-85
2023/07/24 07:55:23;;;;;;;7.03;5.10;;;25.50;69.80;25.30;96002.00;;;;5085202;28;20204;-85
2023/07/24 07:57:50;;;;;;;8.30;5.80;;;25.50;69.70;25.30;96004.00;;;;5072442;28;20223;-83
2023/07/24 08:00:18;;;;;;;5.90;4.87;;;25.50;69.30;25.20;95985.00;;;;5074273;28;20192;-87
2023/07/24 08:02:47;;;;;;;5.63;4.77;;;25.50;69.40;25.20;95987.00;;;;5074306;28;20199;-87
2023/07/24 08:05:15;;;;;;;5.37;4.90;;;25.50;69.30;25.10;96002.00;;;;5081513;28;20199;-86
2023/07/24 08:07:42;;;;;;;5.93;4.63;;;25.50;68.70;25.10;96007.00;;;;5079216;28;20304;-87
2023/07/24 08:10:10;;;;;;;4.40;4.00;;;25.40;68.20;25.00;96009.00;;;;5078374;28;20191;-88
2023/07/24 08:12:37;;;;;;;4.30;3.90;;;25.50;68.00;25.00;96009.00;;;;5080184;28;20227;-87
2023/07/24 08:15:06;;;;;;;3.93;3.53;;;25.30;67.50;24.90;95993.00;;;;5064859;28;20199;-88
2023/07/24 08:17:33;;;;;;;3.53;3.23;;;25.30;67.60;24.80;95988.00;;;;5072101;28;20233;-88
2023/07/24 08:20:03;;;;;;;3.67;3.37;;;25.20;67.50;24.70;95998.00;;;;5063763;28;20193;-87
2023/07/24 08:22:30;;;;;;;7.43;3.37;;;25.10;67.30;24.60;95995.00;;;;5059616;28;20216;-88
2023/07/24 08:24:58;;;;;;;4.93;3.63;;;25.10;67.70;24.50;95999.00;;;;5079750;28;20206;-87
2023/07/24 08:27:26;;;;;;;4.27;3.60;;;25.00;67.20;24.40;95990.00;;;;5054689;28;20224;-87
2023/07/24 08:29:53;;;;;;;3.70;3.37;;;24.90;67.40;24.30;95972.00;;;;5082192;28;20191;-88
2023/07/24 08:32:20;;;;;;;4.30;3.90;;;24.80;67.50;24.20;95973.00;;;;5088546;28;20585;-87
2023/07/24 08:34:48;;;;;;;4.67;4.23;;;24.70;67.40;24.10;95953.00;;;;5072149;28;20556;-87
2023/07/24 08:37:16;;;;;;;4.20;3.80;;;24.60;67.10;24.10;95954.00;;;;5095762;28;20221;-86
2023/07/24 08:39:43;;;;;;;5.40;4.40;;;24.60;67.30;24.00;95951.00;;;;5077774;28;20213;-87
2023/07/24 08:42:13;;;;;;;4.73;4.07;;;24.50;67.30;23.90;95949.00;;;;5080273;28;20198;-87
2023/07/24 08:44:41;;;;;;;5.13;4.53;;;24.40;67.70;23.90;95928.00;;;;5090078;28;20677;-87
2023/07/24 08:47:12;;;;;;;5.03;3.70;;;24.40;67.80;23.80;95901.00;;;;5079646;28;20584;-86
2023/07/24 08:49:41;;;;;;;4.47;3.87;;;24.30;68.20;23.80;95895.00;;;;5072027;28;20202;-87
2023/07/24 08:52:10;;;;;;;3.90;3.57;;;24.30;68.00;23.80;95894.00;;;;5084068;28;20571;-87
2023/07/24 08:54:39;;;;;;;4.23;3.83;;;24.20;67.90;23.70;95875.00;;;;5093374;28;20196;-87
2023/07/24 08:57:08;;;;;;;4.97;4.43;;;24.20;68.10;23.70;95863.00;;;;5095587;28;20217;-87
2023/07/24 08:59:36;;;;;;;4.47;4.07;;;24.20;68.20;23.70;95859.00;;;;5085163;28;20198;-86
2023/07/24 09:02:03;;;;;;;4.00;3.60;;;24.20;68.70;23.70;95855.00;;;;5080408;28;20205;-87
2023/07/24 09:04:31;;;;;;;4.40;3.97;;;24.20;69.50;23.80;95841.00;;;;5088658;28;20262;-87
2023/07/24 09:06:59;;;;;;;5.60;3.90;;;24.10;70.00;23.80;95834.00;;;;5070527;28;20593;-86
2023/07/24 09:09:32;;;;;;;5.43;4.57;;;24.20;70.80;23.80;95778.00;;;;5092048;28;20209;-86
2023/07/24 09:12:00;;;;;;;4.77;3.97;;;24.20;70.90;23.80;95736.00;;;;5080066;28;20839;-87
2023/07/24 09:14:30;;;;;;;4.90;4.00;;;24.20;72.20;23.90;95735.00;;;;5082498;28;20206;-86
2023/07/24 09:17:05;;;;;;;4.37;3.93;;;24.20;72.10;23.90;95743.00;;;;5079507;28;20301;-86
2023/07/24 09:19:32;;;;;;;4.63;4.10;;;24.30;73.30;24.00;95735.00;;;;5067198;28;20195;-86
2023/07/24 09:22:13;;;;;;;4.53;4.13;;;24.30;72.60;24.10;95734.00;;;;5086123;28;20198;-86
2023/07/24 09:24:51;;;;;;;4.53;4.10;;;24.40;73.00;24.20;95755.00;;;;5073332;28;20195;-87
2023/07/24 09:27:20;;;;;;;4.63;3.93;;;24.50;74.60;24.30;95756.00;;;;5073335;28;20218;-86
2023/07/24 09:29:48;;;;;;;4.63;4.23;;;24.60;72.90;24.40;95766.00;;;;5083437;28;20200;-87
2023/07/24 09:32:23;;;;;;;5.67;4.20;;;24.70;72.60;24.50;95764.00;;;;5067530;28;20247;-86
2023/07/24 09:34:53;;;;;;;7.00;3.90;;;24.80;73.30;24.60;95762.00;;;;5076659;28;20222;-86
2023/07/24 09:37:29;;;;;;;4.57;4.17;;;24.90;71.80;24.70;95766.00;;;;5087091;28;20207;-86
2023/07/24 09:39:56;;;;;;;4.63;3.53;;;24.90;70.70;24.80;95752.00;;;;5088567;28;20277;-87
2023/07/24 09:42:32;;;;;;;5.97;4.03;;;25.10;70.80;24.90;95743.00;;;;5082427;28;20196;-86
2023/07/24 09:45:00;;;;;;;4.27;3.50;;;25.10;70.20;25.00;95737.00;;;;5080105;28;20195;-87
2023/07/24 09:47:27;;;;;;;4.37;3.97;;;25.20;69.80;25.10;95739.00;;;;5091306;28;20217;-85
2023/07/24 09:49:54;;;;;;;4.47;3.70;;;25.30;69.40;25.20;95752.00;;;;5072427;28;20665;-85
2023/07/24 09:52:22;;;;;;;4.30;3.87;;;25.40;69.10;25.20;95764.00;;;;5087305;28;20223;-86
2023/07/24 09:55:00;;;;;;;5.23;4.10;;;25.40;68.90;25.30;95754.00;;;;5091024;28;20207;-87
2023/07/24 09:57:32;;;;;;;6.13;3.80;;;25.50;69.10;25.30;95760.00;;;;5073579;28;20218;-86
2023/07/24 10:00:01;;;;;;;5.67;4.17;;;25.50;69.70;25.40;95761.00;;;;5087642;28;20682;-87
2023/07/24 10:02:30;;;;;;;3.97;3.33;;;25.60;69.50;25.40;95762.00;;;;5085898;28;20627;-87
2023/07/24 10:04:58;;;;;;;4.13;3.60;;;25.60;68.70;25.40;95765.00;;;;5084607;28;20192;-86
2023/07/24 10:07:26;;;;;;;5.67;3.90;;;25.70;69.70;25.50;95774.00;;;;5080331;28;20258;-86
2023/07/24 10:09:56;;;;;;;3.97;3.57;;;25.80;69.20;25.60;95767.00;;;;5072805;28;20188;-87
2023/07/24 10:12:27;;;;;;;4.27;3.67;;;25.80;69.00;25.70;95767.00;;;;5071248;28;20242;-88
2023/07/24 10:14:58;;;;;;;4.03;3.60;;;25.90;70.20;25.70;95778.00;;;;5078510;28;20253;-87
2023/07/24 10:17:39;;;;;;;4.37;3.97;;;26.00;68.40;25.80;95783.00;;;;5084485;28;20226;-87
2023/07/24 10:20:08;;;;;;;4.30;3.90;;;26.10;69.10;25.90;95775.00;;;;5091862;28;20195;-86
2023/07/24 10:22:37;;;;;;;3.90;3.60;;;26.20;68.20;26.00;95770.00;;;;5075256;28;20287;-86
2023/07/24 10:25:05;;;;;;;4.20;3.77;;;26.20;67.80;26.00;95770.00;;;;5068375;28;20196;-86
2023/07/24 10:27:36;;;;;;;4.30;3.90;;;26.30;68.20;26.10;95775.00;;;;5063940;28;20612;-87
2023/07/24 10:30:07;;;;;;;4.23;3.87;;;26.30;67.90;26.10;95765.00;;;;5094536;28;20195;-87
2023/07/24 10:32:34;;;;;;;4.50;3.50;;;26.40;67.70;26.10;95783.00;;;;5077378;28;20220;-87
2023/07/24 10:35:09;;;;;;;5.40;3.57;;;26.50;67.80;26.20;95784.00;;;;5069050;28;20231;-87
2023/07/24 10:37:38;;;;;;;4.20;3.80;;;26.50;67.20;26.20;95781.00;;;;5073617;28;20219;-86
2023/07/24 10:40:08;;;;;;;3.77;3.47;;;26.50;67.80;26.30;95764.00;;;;5080072;28;20215;-88
2023/07/24 10:42:35;;;;;;;4.17;3.77;;;26.50;67.50;26.30;95753.00;;;;5086488;28;20276;-86
2023/07/24 10:45:09;;;;;;;5.07;3.90;;;26.60;67.10;26.40;95752.00;;;;5073801;28;20231;-87
2023/07/24 10:47:36;;;;;;;4.57;3.70;;;26.70;67.40;26.50;95763.00;;;;5074400;28;20665;-87
2023/07/24 10:50:04;;;;;;;4.43;4.03;;;26.70;66.90;26.60;95768.00;;;;5074147;28;20716;-87
2023/07/24 10:52:33;;;;;;;4.97;3.37;;;26.80;66.40;26.60;95762.00;;;;5072528;28;20227;-87
2023/07/24 10:55:02;;;;;;;3.93;3.53;;;26.80;66.60;26.70;95763.00;;;;5079183;28;20207;-88
2023/07/24 10:57:31;;;;;;;3.53;3.23;;;26.90;66.80;26.70;95767.00;;;;5092966;28;20219;-87
2023/07/24 10:59:58;;;;;;;5.17;3.57;;;26.90;66.40;26.70;95767.00;;;;5062446;28;20192;-86